createdAt,value
2023-03-20T00:01:23.700Z,101810.59
2023-03-20T00:03:52.315Z,101810.59
2023-03-20T00:06:24.124Z,101812.68
2023-03-20T00:08:53.796Z,101816.70
2023-03-20T00:11:35.148Z,101825.79
2023-03-20T00:14:14.499Z,101818.37
2023-03-20T00:16:44.707Z,101813.01
2023-03-20T00:19:27.021Z,101811.01
2023-03-20T00:21:55.337Z,101829.74
2023-03-20T00:24:23.388Z,101830.40
2023-03-20T00:26:51.930Z,101829.55
2023-03-20T00:29:27.972Z,101825.92
2023-03-20T00:31:56.411Z,101823.70
2023-03-20T00:34:25.266Z,101821.70
2023-03-20T00:36:53.247Z,101818.56
2023-03-20T00:39:21.417Z,101818.01
2023-03-20T00:41:57.258Z,101817.52
2023-03-20T00:44:34.928Z,101819.19
2023-03-20T00:47:19.501Z,101825.49
2023-03-20T00:49:48.112Z,101826.67
2023-03-20T00:52:16.015Z,101823.27
2023-03-20T00:54:43.816Z,101822.72
2023-03-20T00:57:21.761Z,101815.33
2023-03-20T00:59:53.743Z,101813.07
2023-03-20T01:02:22.443Z,101817.88
2023-03-20T01:04:50.554Z,101812.74
2023-03-20T01:07:19.560Z,101818.43
2023-03-20T01:09:48.345Z,101803.36
2023-03-20T01:12:16.067Z,101815.03
2023-03-20T01:14:44.095Z,101809.63
2023-03-20T01:17:22.023Z,101814.41
2023-03-20T01:19:50.667Z,101816.41
2023-03-20T01:22:21.183Z,101817.81
2023-03-20T01:24:49.184Z,101812.94
2023-03-20T01:27:18.492Z,101814.34
2023-03-20T01:29:46.477Z,101809.70
2023-03-20T01:32:16.093Z,101804.34
2023-03-20T01:34:44.599Z,101812.25
2023-03-20T01:37:18.364Z,101806.56
2023-03-20T01:39:46.388Z,101796.55
2023-03-20T01:42:15.966Z,101815.85
2023-03-20T01:44:43.822Z,101810.16
2023-03-20T01:47:30.016Z,101810.36
2023-03-20T01:50:18.075Z,101805.52
2023-03-20T01:52:46.101Z,101806.34
2023-03-20T01:55:13.846Z,101802.38
2023-03-20T01:57:41.853Z,101805.52
2023-03-20T02:00:13.467Z,101809.73
2023-03-20T02:02:41.527Z,101802.87
2023-03-20T02:05:10.645Z,101800.25
2023-03-20T02:07:38.605Z,101803.42
2023-03-20T02:10:14.381Z,101799.73
2023-03-20T02:12:42.556Z,101805.71
2023-03-20T02:15:10.695Z,101796.88
2023-03-20T02:17:38.500Z,101805.32
2023-03-20T02:20:27.995Z,101810.78
2023-03-20T02:23:18.830Z,101805.95
2023-03-20T02:26:27.465Z,101808.49
2023-03-20T02:28:58.734Z,101813.01
2023-03-20T02:31:56.620Z,101805.55
2023-03-20T02:34:46.901Z,101803.55
2023-03-20T02:37:49.200Z,101803.85
2023-03-20T02:40:18.995Z,101814.41
2023-03-20T02:42:49.926Z,101805.22
2023-03-20T02:45:28.213Z,101818.62
2023-03-20T02:47:55.814Z,101815.78
2023-03-20T02:50:57.134Z,101815.78
2023-03-20T02:53:46.663Z,101819.48
2023-03-20T02:56:32.420Z,101819.48
2023-03-20T02:59:10.611Z,101815.23
2023-03-20T03:01:43.459Z,101816.96
2023-03-20T03:04:13.746Z,101830.01
2023-03-20T03:06:43.016Z,101830.01
2023-03-20T03:09:20.297Z,101822.84
2023-03-20T03:11:55.075Z,101831.41
2023-03-20T03:14:36.565Z,101828.02
2023-03-20T03:17:05.555Z,101835.80
2023-03-20T03:19:33.400Z,101827.45
2023-03-20T03:22:01.739Z,101828.08
2023-03-20T03:24:41.820Z,101833.15
2023-03-20T03:27:26.681Z,101835.66
2023-03-20T03:29:59.322Z,101837.59
2023-03-20T03:33:02.311Z,101843.84
2023-03-20T03:35:30.211Z,101845.51
2023-03-20T03:38:07.408Z,101838.34
2023-03-20T03:40:47.803Z,101853.09
2023-03-20T03:43:22.195Z,101847.95
2023-03-20T03:46:31.803Z,101844.55
2023-03-20T03:48:59.672Z,101850.57
2023-03-20T03:51:30.356Z,101849.43
2023-03-20T03:54:25.113Z,101851.65
2023-03-20T03:56:52.889Z,101860.19
2023-03-20T03:59:44.649Z,101851.98
2023-03-20T04:02:12.520Z,101853.45
2023-03-20T04:04:44.203Z,101857.44
2023-03-20T04:07:12.446Z,101855.45
2023-03-20T04:09:40.190Z,101871.37
2023-03-20T04:12:08.353Z,101864.27
2023-03-20T04:14:36.645Z,101863.65
2023-03-20T04:17:04.377Z,101875.06
2023-03-20T04:19:32.291Z,101880.23
2023-03-20T04:21:59.999Z,101886.57
2023-03-20T04:24:27.798Z,101885.91
2023-03-20T04:26:55.522Z,101881.08
2023-03-20T04:29:23.300Z,101882.74
2023-03-20T04:31:51.506Z,101894.78
2023-03-20T04:34:19.405Z,101881.70
2023-03-20T04:36:47.240Z,101881.37
2023-03-20T04:39:15.060Z,101886.24
2023-03-20T04:41:42.795Z,101880.00
2023-03-20T04:44:10.828Z,101894.55
2023-03-20T04:46:38.640Z,101897.69
2023-03-20T04:49:06.425Z,101899.42
2023-03-20T04:51:34.299Z,101903.12
2023-03-20T04:54:02.225Z,101895.17
2023-03-20T04:56:29.981Z,101890.95
2023-03-20T04:58:57.745Z,101890.10
2023-03-20T05:01:26.021Z,101894.74
2023-03-20T05:03:54.016Z,101893.86
2023-03-20T05:06:21.747Z,101894.74
2023-03-20T05:08:49.567Z,101893.05
2023-03-20T05:11:17.434Z,101889.05
2023-03-20T05:13:45.280Z,101887.55
2023-03-20T05:16:13.101Z,101885.66
2023-03-20T05:18:40.975Z,101885.10
2023-03-20T05:21:09.756Z,101880.03
2023-03-20T05:23:37.710Z,101885.72
2023-03-20T05:26:05.815Z,101886.34
2023-03-20T05:28:33.598Z,101882.74
2023-03-20T05:31:01.643Z,101878.20
2023-03-20T05:33:29.375Z,101885.33
2023-03-20T05:35:57.276Z,101885.33
2023-03-20T05:38:25.211Z,101889.35
2023-03-20T05:40:57.693Z,101886.51
2023-03-20T05:43:25.508Z,101892.78
2023-03-20T05:45:53.341Z,101897.85
2023-03-20T05:48:21.132Z,101898.34
2023-03-20T05:50:49.082Z,101901.22
2023-03-20T05:53:17.010Z,101906.62
2023-03-20T05:55:45.903Z,101907.10
2023-03-20T05:58:13.737Z,101915.37
2023-03-20T06:00:41.674Z,101916.42
2023-03-20T06:03:09.455Z,101928.03
2023-03-20T06:05:37.841Z,101930.05
2023-03-20T06:08:06.793Z,101926.07
2023-03-20T06:10:34.504Z,101925.45
2023-03-20T06:13:02.536Z,101935.68
2023-03-20T06:15:30.355Z,101932.51
2023-03-20T06:17:58.165Z,101937.58
2023-03-20T06:20:26.275Z,101926.72
2023-03-20T06:22:54.124Z,101933.20
2023-03-20T06:25:22.208Z,101921.16
2023-03-20T06:27:50.054Z,101924.56
2023-03-20T06:30:18.012Z,101916.84
2023-03-20T06:32:45.837Z,101918.55
2023-03-20T06:35:14.170Z,101920.54
2023-03-20T06:37:42.337Z,101931.10
2023-03-20T06:40:11.542Z,101927.84
2023-03-20T06:42:39.401Z,101931.23
2023-03-20T06:45:07.866Z,101933.46
2023-03-20T06:47:35.593Z,101933.46
2023-03-20T06:50:03.560Z,101933.13
2023-03-20T06:52:31.324Z,101937.67
2023-03-20T06:54:59.064Z,101943.07
2023-03-20T06:57:27.144Z,101944.54
2023-03-20T06:59:54.889Z,101950.79
2023-03-20T07:02:23.245Z,101950.30
2023-03-20T07:04:51.095Z,101948.34
2023-03-20T07:07:19.989Z,101961.09
2023-03-20T07:09:47.894Z,101958.24
2023-03-20T07:12:16.266Z,101966.28
2023-03-20T07:14:44.260Z,101969.95
2023-03-20T07:17:12.032Z,101973.97
2023-03-20T07:19:40.025Z,101967.73
2023-03-20T07:22:09.113Z,101958.57
2023-03-20T07:24:36.961Z,101963.63
2023-03-20T07:27:04.766Z,101966.41
2023-03-20T07:29:32.763Z,101959.45
2023-03-20T07:32:02.223Z,101964.06
2023-03-20T07:34:30.062Z,101953.76
2023-03-20T07:36:58.112Z,101958.30
2023-03-20T07:39:25.946Z,101957.98
2023-03-20T07:41:53.714Z,101950.30
2023-03-20T07:44:24.770Z,101951.90
2023-03-20T07:46:52.707Z,101952.48
2023-03-20T07:49:20.834Z,101945.59
2023-03-20T07:51:49.825Z,101944.34
2023-03-20T07:54:20.966Z,101951.31
2023-03-20T07:56:48.829Z,101947.48
2023-03-20T07:59:16.795Z,101941.89
2023-03-20T08:01:44.639Z,101940.84
2023-03-20T08:04:12.673Z,101946.96
2023-03-20T08:06:40.787Z,101944.51
2023-03-20T08:09:09.831Z,101955.85
2023-03-20T08:11:38.151Z,101954.02
2023-03-20T08:14:06.383Z,101954.64
2023-03-20T08:16:34.350Z,101949.05
2023-03-20T08:19:03.152Z,101953.89
2023-03-20T08:21:31.737Z,101953.44
2023-03-20T08:23:59.732Z,101950.69
2023-03-20T08:26:27.571Z,101950.46
2023-03-20T08:28:55.381Z,101957.85
2023-03-20T08:31:23.203Z,101967.00
2023-03-20T08:33:51.166Z,101972.53
2023-03-20T08:36:21.652Z,101975.44
2023-03-20T08:38:50.408Z,101970.80
2023-03-20T08:41:19.045Z,101967.76
2023-03-20T08:43:47.489Z,101959.98
2023-03-20T08:46:15.402Z,101965.70
2023-03-20T08:48:43.355Z,101966.91
2023-03-20T08:51:11.098Z,101968.02
2023-03-20T08:53:38.959Z,101973.18
2023-03-20T08:56:07.503Z,101967.43
2023-03-20T08:58:35.283Z,101957.59
2023-03-20T09:01:07.525Z,101955.37
2023-03-20T09:03:35.296Z,101956.90
2023-03-20T09:06:03.371Z,101956.84
2023-03-20T09:08:31.262Z,101955.89
2023-03-20T09:10:59.098Z,101955.40
2023-03-20T09:13:28.053Z,101958.63
2023-03-20T09:15:56.777Z,101951.27
2023-03-20T09:18:24.815Z,101946.41
2023-03-20T09:20:52.628Z,101949.19
2023-03-20T09:23:20.476Z,101952.48
2023-03-20T09:25:48.757Z,101954.91
2023-03-20T09:28:16.637Z,101950.62
2023-03-20T09:30:44.720Z,101949.97
2023-03-20T09:33:13.056Z,101957.91
2023-03-20T09:35:43.418Z,101958.77
2023-03-20T09:38:11.519Z,101955.01
2023-03-20T09:40:43.560Z,101954.41
2023-03-20T09:43:30.423Z,101956.18
2023-03-20T09:46:09.694Z,101958.14
2023-03-20T09:49:09.986Z,101963.08
2023-03-20T09:51:39.845Z,101960.73
2023-03-20T09:54:12.134Z,101962.43
2023-03-20T09:56:39.998Z,101963.24
2023-03-20T09:59:07.910Z,101956.87
2023-03-20T10:01:51.380Z,101959.55
2023-03-20T10:04:19.258Z,101947.45
2023-03-20T10:06:47.775Z,101952.98
2023-03-20T10:09:25.897Z,101953.17
2023-03-20T10:11:56.657Z,101947.62
2023-03-20T10:14:39.211Z,101950.46
2023-03-20T10:17:27.468Z,101948.27
2023-03-20T10:20:14.731Z,101952.16
2023-03-20T10:22:48.582Z,101953.34
2023-03-20T10:25:24.240Z,101960.27
2023-03-20T10:28:19.045Z,101954.88
2023-03-20T10:30:52.769Z,101957.06
2023-03-20T10:33:28.002Z,101963.96
2023-03-20T10:36:24.221Z,101962.63
2023-03-20T10:39:06.537Z,101957.88
2023-03-20T10:41:36.526Z,101965.63
2023-03-20T10:44:04.508Z,101956.18
2023-03-20T10:46:42.742Z,101952.98
2023-03-20T10:49:18.863Z,101951.48
2023-03-20T10:51:52.583Z,101950.79
2023-03-20T10:54:36.835Z,101945.91
2023-03-20T10:57:05.595Z,101939.51
2023-03-20T10:59:58.842Z,101938.85
2023-03-20T11:02:30.125Z,101926.69
2023-03-20T11:04:58.335Z,101935.32
2023-03-20T11:07:29.956Z,101929.05
2023-03-20T11:10:06.893Z,101927.87
2023-03-20T11:12:42.765Z,101928.52
2023-03-20T11:15:32.727Z,101926.82
2023-03-20T11:18:05.720Z,101928.78
2023-03-20T11:20:39.731Z,101922.44
2023-03-20T11:23:09.188Z,101922.70
2023-03-20T11:25:41.066Z,101923.65
2023-03-20T11:28:22.077Z,101922.27
2023-03-20T11:31:04.106Z,101928.00
2023-03-20T11:33:32.593Z,101926.10
2023-03-20T11:36:00.726Z,101925.45
2023-03-20T11:38:28.659Z,101933.39
2023-03-20T11:40:56.715Z,101930.35
2023-03-20T11:43:29.006Z,101932.45
2023-03-20T11:46:01.365Z,101934.21
2023-03-20T11:48:40.320Z,101932.58
2023-03-20T11:51:09.997Z,101934.08
2023-03-20T11:53:55.523Z,101928.88
2023-03-20T11:56:30.091Z,101929.01
2023-03-20T11:59:00.758Z,101928.55
2023-03-20T12:01:29.104Z,101929.08
2023-03-20T12:03:57.376Z,101920.02
2023-03-20T12:06:29.137Z,101930.41
2023-03-20T12:09:00.348Z,101928.45
2023-03-20T12:12:02.228Z,101921.59
2023-03-20T12:14:56.287Z,101922.05
2023-03-20T12:17:53.396Z,101928.00
2023-03-20T12:20:36.292Z,101917.83
2023-03-20T12:23:16.063Z,101914.59
2023-03-20T12:26:12.454Z,101917.30
2023-03-20T12:28:55.851Z,101909.95
2023-03-20T12:31:41.563Z,101911.42
2023-03-20T12:34:37.762Z,101907.66
2023-03-20T12:37:05.769Z,101911.06
2023-03-20T12:39:36.294Z,101902.16
2023-03-20T12:42:13.476Z,101899.75
2023-03-20T12:44:50.599Z,101903.84
2023-03-20T12:47:38.451Z,101895.01
2023-03-20T12:50:30.068Z,101889.74
2023-03-20T12:53:23.107Z,101900.96
2023-03-20T12:56:09.679Z,101898.18
2023-03-20T12:58:49.983Z,101898.77
2023-03-20T13:01:34.326Z,101889.58
2023-03-20T13:04:39.738Z,101885.43
2023-03-20T13:07:25.109Z,101888.27
2023-03-20T13:10:05.144Z,101893.80
2023-03-20T13:12:52.412Z,101883.66
2023-03-20T13:15:35.522Z,101878.10
2023-03-20T13:18:09.701Z,101883.01
2023-03-20T13:20:44.640Z,101884.22
2023-03-20T13:23:15.679Z,101877.45
2023-03-20T13:26:11.574Z,101884.94
2023-03-20T13:28:51.859Z,101879.34
2023-03-20T13:31:27.495Z,101884.58
2023-03-20T13:34:03.507Z,101879.21
2023-03-20T13:37:22.287Z,101877.32
2023-03-20T13:40:22.896Z,101870.59
2023-03-20T13:42:52.813Z,101869.77
2023-03-20T13:45:42.608Z,101864.01
2023-03-20T13:48:30.583Z,101869.90
2023-03-20T13:51:17.899Z,101859.89
2023-03-20T13:53:54.852Z,101856.06
2023-03-20T13:56:41.503Z,101861.23
2023-03-20T13:59:31.019Z,101854.04
2023-03-20T14:02:33.630Z,101849.85
2023-03-20T14:05:28.982Z,101841.45
2023-03-20T14:07:58.033Z,101845.73
2023-03-20T14:10:25.897Z,101841.52
2023-03-20T14:12:58.457Z,101838.31
2023-03-20T14:15:40.231Z,101837.10
2023-03-20T14:18:13.024Z,101831.22
2023-03-20T14:20:41.881Z,101830.40
2023-03-20T14:23:40.447Z,101836.48
2023-03-20T14:26:18.440Z,101842.59
2023-03-20T14:28:54.348Z,101829.78
2023-03-20T14:31:34.081Z,101837.20
2023-03-20T14:34:27.922Z,101833.34
2023-03-20T14:37:03.383Z,101824.71
2023-03-20T14:39:51.911Z,101824.09
2023-03-20T14:42:24.843Z,101822.78
2023-03-20T14:45:23.041Z,101817.22
2023-03-20T14:48:15.982Z,101813.52
2023-03-20T14:51:00.094Z,101810.16
2023-03-20T14:53:28.315Z,101802.70
2023-03-20T14:55:59.188Z,101804.30
2023-03-20T14:58:45.157Z,101803.98
2023-03-20T15:01:22.890Z,101807.91
2023-03-20T15:04:15.412Z,101793.81
2023-03-20T15:06:53.183Z,101794.43
2023-03-20T15:09:21.095Z,101791.69
2023-03-20T15:11:48.972Z,101781.84
2023-03-20T15:14:22.202Z,101788.09
2023-03-20T15:16:51.870Z,101784.23
2023-03-20T15:19:20.276Z,101775.47
2023-03-20T15:21:49.240Z,101777.89
2023-03-20T15:24:29.866Z,101784.20
2023-03-20T15:26:59.882Z,101777.98
2023-03-20T15:29:27.744Z,101779.85
2023-03-20T15:32:12.996Z,101776.52
2023-03-20T15:34:42.352Z,101771.61
2023-03-20T15:37:14.305Z,101781.75
2023-03-20T15:39:50.362Z,101781.12
2023-03-20T15:42:20.107Z,101777.98
2023-03-20T15:44:49.281Z,101776.16
2023-03-20T15:47:21.733Z,101780.60
2023-03-20T15:49:57.208Z,101774.36
2023-03-20T15:52:38.275Z,101776.38
2023-03-20T15:55:08.597Z,101777.43
2023-03-20T15:57:38.006Z,101780.30
2023-03-20T16:00:26.683Z,101774.09
2023-03-20T16:03:03.094Z,101769.19
2023-03-20T16:05:30.974Z,101771.91
2023-03-20T16:07:58.857Z,101773.80
2023-03-20T16:10:31.884Z,101760.13
2023-03-20T16:12:59.727Z,101761.67
2023-03-20T16:15:32.636Z,101763.57
2023-03-20T16:18:04.545Z,101762.23
2023-03-20T16:20:37.933Z,101766.64
2023-03-20T16:23:09.902Z,101757.78
2023-03-20T16:25:42.853Z,101760.00
2023-03-20T16:28:13.854Z,101756.51
2023-03-20T16:30:42.052Z,101756.93
2023-03-20T16:33:16.981Z,101764.91
2023-03-20T16:35:46.544Z,101768.83
2023-03-20T16:38:28.374Z,101775.44
2023-03-20T16:40:59.582Z,101772.79
2023-03-20T16:43:29.664Z,101772.98
2023-03-20T16:45:58.930Z,101771.84
2023-03-20T16:48:38.696Z,101774.06
2023-03-20T16:51:11.461Z,101768.38
2023-03-20T16:53:42.682Z,101768.54
2023-03-20T16:56:16.124Z,101773.97
2023-03-20T16:58:46.954Z,101777.04
2023-03-20T17:01:20.796Z,101774.72
2023-03-20T17:03:59.475Z,101778.45
2023-03-20T17:06:36.973Z,101782.30
2023-03-20T17:09:20.200Z,101783.88
2023-03-20T17:11:54.015Z,101781.52
2023-03-20T17:14:22.069Z,101784.59
2023-03-20T17:16:52.343Z,101778.51
2023-03-20T17:19:20.556Z,101780.38
2023-03-20T17:21:48.883Z,101775.17
2023-03-20T17:24:17.603Z,101771.12
2023-03-20T17:26:57.014Z,101775.17
2023-03-20T17:29:30.161Z,101773.18
2023-03-20T17:31:58.148Z,101782.27
2023-03-20T17:34:26.082Z,101778.58
2023-03-20T17:36:58.563Z,101783.97
2023-03-20T17:39:30.046Z,101780.44
2023-03-20T17:41:57.875Z,101781.78
2023-03-20T17:44:25.998Z,101773.18
2023-03-20T17:46:58.799Z,101775.70
2023-03-20T17:49:28.485Z,101765.43
2023-03-20T17:51:58.087Z,101775.53
2023-03-20T17:54:26.121Z,101773.18
2023-03-20T17:56:54.286Z,101772.49
2023-03-20T17:59:29.875Z,101774.16
2023-03-20T18:01:58.463Z,101775.01
2023-03-20T18:04:26.578Z,101767.91
2023-03-20T18:06:54.846Z,101776.35
2023-03-20T18:09:22.702Z,101779.55
2023-03-20T18:11:50.615Z,101781.06
2023-03-20T18:14:20.087Z,101780.70
2023-03-20T18:17:00.129Z,101784.43
2023-03-20T18:19:32.101Z,101795.67
2023-03-20T18:22:00.145Z,101791.46
2023-03-20T18:24:28.256Z,101789.59
2023-03-20T18:26:56.246Z,101792.80
2023-03-20T18:29:24.111Z,101786.91
2023-03-20T18:31:52.138Z,101790.73
2023-03-20T18:34:20.079Z,101794.11
2023-03-20T18:36:47.943Z,101796.63
2023-03-20T18:39:24.109Z,101789.56
2023-03-20T18:41:52.306Z,101797.60
2023-03-20T18:44:20.260Z,101801.46
2023-03-20T18:46:48.101Z,101796.07
2023-03-20T18:49:17.530Z,101793.71
2023-03-20T18:51:46.001Z,101791.33
2023-03-20T18:54:13.964Z,101798.36
2023-03-20T18:56:42.330Z,101788.74
2023-03-20T18:59:11.828Z,101794.27
2023-03-20T19:01:39.794Z,101794.47
2023-03-20T19:04:07.794Z,101804.54
2023-03-20T19:06:35.646Z,101802.18
2023-03-20T19:09:05.074Z,101808.43
2023-03-20T19:11:32.997Z,101812.45
2023-03-20T19:14:00.891Z,101817.32
2023-03-20T19:16:30.429Z,101809.77
2023-03-20T19:19:02.657Z,101813.76
2023-03-20T19:21:31.777Z,101822.32
2023-03-20T19:24:01.747Z,101822.16
2023-03-20T19:26:31.093Z,101822.98
2023-03-20T19:29:00.989Z,101818.79
2023-03-20T19:31:29.264Z,101813.40
2023-03-20T19:33:57.958Z,101817.94
2023-03-20T19:36:32.644Z,101819.77
2023-03-20T19:39:01.096Z,101819.25
2023-03-20T19:41:29.871Z,101815.06
2023-03-20T19:43:58.128Z,101815.72
2023-03-20T19:46:42.781Z,101821.21
2023-03-20T19:49:19.558Z,101824.41
2023-03-20T19:51:48.472Z,101822.52
2023-03-20T19:54:16.657Z,101825.16
2023-03-20T19:56:44.626Z,101832.59
2023-03-20T19:59:16.097Z,101832.06
2023-03-20T20:01:44.796Z,101830.40
2023-03-20T20:04:12.732Z,101836.77
2023-03-20T20:06:41.794Z,101824.94
2023-03-20T20:09:10.074Z,101822.91
2023-03-20T20:11:37.950Z,101826.41
2023-03-20T20:14:09.439Z,101830.10
2023-03-20T20:16:38.209Z,101829.62
2023-03-20T20:19:06.303Z,101827.91
2023-03-20T20:24:22.433Z,101824.35
2023-03-20T20:27:03.499Z,101818.76
2023-03-20T20:29:39.274Z,101813.66
2023-03-20T20:32:07.168Z,101806.59
2023-03-20T20:40:12.620Z,101804.93
2023-03-20T20:42:40.618Z,101799.34
2023-03-20T20:45:09.428Z,101801.85
2023-03-20T20:47:37.282Z,101805.02
2023-03-20T20:50:06.012Z,101807.71
2023-03-20T20:52:36.014Z,101802.84
2023-03-20T20:55:19.423Z,101801.98
2023-03-20T20:57:50.022Z,101811.40
2023-03-20T21:00:19.019Z,101807.71
2023-03-20T21:02:46.955Z,101813.07
2023-03-20T21:05:15.907Z,101815.42
2023-03-20T21:07:44.787Z,101814.57
2023-03-20T21:10:13.042Z,101813.40
2023-03-20T21:12:57.796Z,101811.83
2023-03-20T21:15:26.804Z,101807.31
2023-03-20T21:18:01.216Z,101807.31
2023-03-20T21:20:33.075Z,101792.30
2023-03-20T21:23:00.965Z,101802.90
2023-03-20T21:25:39.777Z,101801.53
2023-03-20T21:28:08.797Z,101798.12
2023-03-20T21:30:37.096Z,101800.16
2023-03-20T21:33:05.148Z,101789.56
2023-03-20T21:35:33.341Z,101792.77
2023-03-20T21:40:48.926Z,101794.76
2023-03-20T21:43:18.166Z,101806.89
2023-03-20T21:49:22.981Z,101793.16
2023-03-20T21:57:30.612Z,101797.67
2023-03-20T22:00:20.056Z,101789.95
2023-03-20T22:02:35.023Z,101801.37
2023-03-20T22:05:50.177Z,101795.35
2023-03-20T22:08:46.505Z,101796.20
2023-03-20T22:14:39.204Z,101808.91
2023-03-20T22:17:20.494Z,101802.38
2023-03-20T22:19:57.571Z,101800.35
2023-03-20T22:22:43.254Z,101796.13
2023-03-20T22:28:08.532Z,101809.18
2023-03-20T22:36:38.510Z,101803.45
2023-03-20T22:42:57.339Z,101798.06
2023-03-20T22:47:10.507Z,101797.34
2023-03-20T22:49:38.382Z,101796.30
2023-03-20T22:52:22.527Z,101795.25
2023-03-20T22:54:52.778Z,101792.70
2023-03-20T22:57:20.737Z,101782.27
2023-03-20T22:59:48.530Z,101787.14
2023-03-20T23:02:16.700Z,101786.06
2023-03-20T23:04:44.633Z,101785.05
2023-03-20T23:07:12.422Z,101780.51
2023-03-20T23:09:40.356Z,101782.30
2023-03-20T23:12:08.311Z,101779.88
2023-03-20T23:14:45.397Z,101778.02
2023-03-20T23:17:14.092Z,101771.35
2023-03-20T23:19:49.006Z,101769.98
2023-03-20T23:22:19.790Z,101771.35
2023-03-20T23:24:47.579Z,101775.34
2023-03-20T23:27:15.384Z,101781.68
2023-03-20T23:29:43.161Z,101776.32
2023-03-20T23:32:11.004Z,101774.42
2023-03-20T23:34:38.854Z,101769.98
2023-03-20T23:37:06.644Z,101774.23
2023-03-20T23:39:34.503Z,101781.91
2023-03-20T23:42:14.442Z,101774.55
2023-03-20T23:44:55.282Z,101768.60
2023-03-20T23:47:27.675Z,101774.65
2023-03-20T23:49:57.725Z,101771.05
2023-03-20T23:52:25.502Z,101763.96
2023-03-20T23:54:53.281Z,101764.62
2023-03-20T23:57:21.102Z,101757.32
2023-03-20T23:59:48.857Z,101750.78
